createdAt,value
2022-11-29T00:01:11.988Z,3.15
2022-11-29T00:03:39.348Z,2.75
2022-11-29T00:06:12.164Z,3.90
2022-11-29T00:08:39.502Z,3.22
2022-11-29T00:11:08.996Z,3.42
2022-11-29T00:13:36.033Z,3.58
2022-11-29T00:16:08.998Z,3.30
2022-11-29T00:18:36.863Z,2.78
2022-11-29T00:21:07.874Z,3.35
2022-11-29T00:23:36.063Z,2.85
2022-11-29T00:26:07.733Z,3.58
2022-11-29T00:28:36.309Z,3.28
2022-11-29T00:31:20.288Z,3.50
2022-11-29T00:33:47.514Z,3.28
2022-11-29T00:36:15.023Z,3.53
2022-11-29T00:38:42.374Z,3.92
2022-11-29T00:41:10.440Z,3.62
2022-11-29T00:43:37.909Z,4.87
2022-11-29T00:46:05.325Z,3.33
2022-11-29T00:48:32.766Z,3.65
2022-11-29T00:50:59.791Z,3.70
2022-11-29T00:53:26.949Z,4.47
2022-11-29T00:55:54.441Z,4.37
2022-11-29T00:58:22.314Z,3.20
2022-11-29T01:00:49.759Z,3.40
2022-11-29T01:03:17.404Z,3.08
2022-11-29T01:05:44.957Z,3.80
2022-11-29T01:08:12.982Z,3.45
2022-11-29T01:10:40.466Z,3.33
2022-11-29T01:13:07.813Z,3.10
2022-11-29T01:15:35.069Z,3.37
2022-11-29T01:18:02.184Z,3.62
2022-11-29T01:20:29.471Z,3.00
2022-11-29T01:22:56.363Z,3.28
2022-11-29T01:25:23.298Z,4.22
2022-11-29T01:27:50.233Z,2.65
2022-11-29T01:30:17.151Z,3.62
2022-11-29T01:32:44.095Z,3.50
2022-11-29T01:35:11.006Z,2.78
2022-11-29T01:37:38.012Z,3.08
2022-11-29T01:40:05.737Z,2.62
2022-11-29T01:42:32.611Z,3.00
2022-11-29T01:45:13.730Z,3.10
2022-11-29T01:47:46.079Z,2.50
2022-11-29T01:50:13.494Z,3.03
2022-11-29T01:52:41.465Z,3.00
2022-11-29T01:55:09.885Z,3.60
2022-11-29T01:57:39.902Z,3.12
2022-11-29T02:00:11.121Z,3.25
2022-11-29T02:02:44.864Z,2.70
2022-11-29T02:05:15.100Z,3.25
2022-11-29T02:07:45.769Z,3.10
2022-11-29T02:10:15.455Z,2.70
2022-11-29T02:12:51.200Z,3.00
2022-11-29T02:15:46.334Z,3.08
2022-11-29T02:18:28.225Z,3.00
2022-11-29T02:21:17.042Z,3.12
2022-11-29T02:23:56.047Z,3.05
2022-11-29T02:26:50.408Z,2.47
2022-11-29T02:29:20.394Z,2.70
2022-11-29T02:32:25.201Z,2.70
2022-11-29T02:34:56.865Z,2.60
2022-11-29T02:37:32.606Z,2.80
2022-11-29T02:40:11.443Z,2.55
2022-11-29T02:42:58.005Z,3.03
2022-11-29T02:45:42.896Z,2.50
2022-11-29T02:48:48.683Z,2.25
2022-11-29T02:51:28.367Z,2.45
2022-11-29T02:54:25.603Z,1.65
2022-11-29T02:56:58.292Z,1.62
2022-11-29T02:59:39.809Z,2.22
2022-11-29T03:02:31.351Z,3.30
2022-11-29T03:05:17.457Z,2.60
2022-11-29T03:08:17.937Z,2.40
2022-11-29T03:10:53.353Z,2.33
2022-11-29T03:13:31.505Z,2.20
2022-11-29T03:16:15.427Z,2.80
2022-11-29T03:18:55.987Z,2.78
2022-11-29T03:21:22.962Z,2.20
2022-11-29T03:24:01.291Z,2.70
2022-11-29T03:26:56.194Z,2.20
2022-11-29T03:29:58.654Z,2.33
2022-11-29T03:32:45.561Z,2.95
2022-11-29T03:35:25.720Z,1.90
2022-11-29T03:38:12.433Z,2.65
2022-11-29T03:40:51.054Z,2.37
2022-11-29T03:43:30.716Z,1.87
2022-11-29T03:46:16.179Z,2.10
2022-11-29T03:48:54.482Z,2.12
2022-11-29T03:51:39.086Z,2.20
2022-11-29T03:54:47.430Z,1.30
2022-11-29T03:57:20.651Z,1.70
2022-11-29T04:00:12.728Z,2.12
2022-11-29T04:03:03.004Z,2.20
2022-11-29T04:05:35.871Z,3.25
2022-11-29T04:08:33.001Z,1.37
2022-11-29T04:11:35.443Z,2.05
2022-11-29T04:14:49.669Z,1.58
2022-11-29T04:17:42.123Z,1.70
2022-11-29T04:20:17.762Z,2.58
2022-11-29T04:23:06.932Z,1.87
2022-11-29T04:26:11.657Z,1.83
2022-11-29T04:28:47.999Z,2.00
2022-11-29T04:31:32.726Z,1.90
2022-11-29T04:34:19.623Z,1.92
2022-11-29T04:36:55.625Z,2.50
2022-11-29T04:39:44.650Z,2.22
2022-11-29T04:42:33.735Z,2.30
2022-11-29T04:45:19.161Z,2.10
2022-11-29T04:48:18.293Z,2.22
2022-11-29T04:51:03.958Z,2.00
2022-11-29T04:53:39.918Z,2.53
2022-11-29T04:56:26.669Z,2.80
2022-11-29T04:58:59.196Z,3.25
2022-11-29T05:01:38.752Z,2.15
2022-11-29T05:04:11.034Z,2.50
2022-11-29T05:06:42.513Z,2.60
2022-11-29T05:09:20.325Z,2.42
2022-11-29T05:11:59.633Z,2.15
2022-11-29T05:14:51.326Z,2.20
2022-11-29T05:17:30.946Z,1.70
2022-11-29T05:20:48.251Z,1.87
2022-11-29T05:23:36.379Z,3.55
2022-11-29T05:26:12.877Z,1.92
2022-11-29T05:28:39.838Z,2.33
2022-11-29T05:31:43.556Z,2.83
2022-11-29T05:34:44.441Z,2.47
2022-11-29T05:37:20.078Z,2.72
2022-11-29T05:40:18.566Z,2.95
2022-11-29T05:42:48.613Z,3.00
2022-11-29T05:45:55.386Z,2.40
2022-11-29T05:48:22.244Z,2.65
2022-11-29T05:51:05.332Z,3.12
2022-11-29T05:53:46.134Z,2.90
2022-11-29T05:56:28.014Z,3.00
2022-11-29T05:58:59.589Z,2.65
2022-11-29T06:01:29.382Z,3.20
2022-11-29T06:04:14.810Z,2.50
2022-11-29T06:06:50.053Z,2.58
2022-11-29T06:09:25.718Z,2.65
2022-11-29T06:11:57.852Z,2.87
2022-11-29T06:14:55.411Z,2.83
2022-11-29T06:17:38.828Z,2.42
2022-11-29T06:20:19.230Z,2.90
2022-11-29T06:23:02.158Z,2.37
2022-11-29T06:26:16.844Z,2.40
2022-11-29T06:29:19.264Z,2.65
2022-11-29T06:31:58.002Z,2.75
2022-11-29T06:34:50.978Z,3.10
2022-11-29T06:37:34.015Z,2.85
2022-11-29T06:40:01.228Z,3.35
2022-11-29T06:42:28.186Z,2.42
2022-11-29T06:44:55.299Z,2.80
2022-11-29T06:47:25.041Z,2.58
2022-11-29T06:50:18.171Z,2.53
2022-11-29T06:53:11.299Z,3.00
2022-11-29T06:55:38.168Z,2.30
2022-11-29T06:58:29.285Z,2.42
2022-11-29T07:01:14.311Z,2.30
2022-11-29T07:04:11.913Z,2.80
2022-11-29T07:06:39.149Z,2.45
2022-11-29T07:09:18.706Z,2.20
2022-11-29T07:11:47.028Z,2.53
2022-11-29T07:14:14.613Z,2.12
2022-11-29T07:16:44.723Z,2.62
2022-11-29T07:19:17.515Z,2.37
2022-11-29T07:22:19.504Z,2.33
2022-11-29T07:24:51.646Z,2.60
2022-11-29T07:27:52.377Z,2.20
2022-11-29T07:30:30.412Z,2.75
2022-11-29T07:33:07.616Z,3.15
2022-11-29T07:35:59.388Z,2.17
2022-11-29T07:38:35.253Z,1.90
2022-11-29T07:41:15.708Z,2.05
2022-11-29T07:44:13.985Z,2.33
2022-11-29T07:46:40.853Z,2.08
2022-11-29T07:49:10.550Z,1.95
2022-11-29T07:51:37.576Z,1.95
2022-11-29T07:54:05.452Z,2.10
2022-11-29T07:56:32.364Z,1.90
2022-11-29T07:58:59.381Z,1.80
2022-11-29T08:01:26.373Z,1.55
2022-11-29T08:03:53.534Z,1.50
2022-11-29T08:06:26.785Z,1.85
2022-11-29T08:08:53.763Z,1.80
2022-11-29T08:11:20.770Z,2.87
2022-11-29T08:13:47.854Z,1.70
2022-11-29T08:16:18.678Z,1.60
2022-11-29T08:18:45.815Z,1.80
2022-11-29T08:21:18.036Z,1.73
2022-11-29T08:23:46.216Z,1.55
2022-11-29T08:26:13.383Z,2.08
2022-11-29T08:28:40.379Z,1.40
2022-11-29T08:31:10.289Z,1.65
2022-11-29T08:33:42.426Z,1.92
2022-11-29T08:36:12.607Z,1.60
2022-11-29T08:38:39.785Z,1.42
2022-11-29T08:41:09.301Z,1.27
2022-11-29T08:43:36.474Z,1.40
2022-11-29T08:46:04.129Z,1.58
2022-11-29T08:48:31.213Z,1.40
2022-11-29T08:50:58.719Z,1.30
2022-11-29T08:53:46.231Z,1.92
2022-11-29T08:59:06.862Z,1.60
2022-11-29T09:01:33.883Z,1.65
2022-11-29T09:04:02.816Z,1.80
2022-11-29T09:06:37.033Z,1.77
2022-11-29T09:09:05.691Z,1.73
2022-11-29T09:11:35.317Z,1.52
2022-11-29T09:14:06.094Z,1.77
2022-11-29T09:16:36.530Z,1.50
2022-11-29T09:19:05.354Z,1.42
2022-11-29T09:21:34.450Z,1.73
2022-11-29T09:24:05.587Z,1.30
2022-11-29T09:26:35.965Z,1.55
2022-11-29T09:29:05.230Z,1.30
2022-11-29T09:31:33.418Z,1.55
2022-11-29T09:34:00.764Z,1.90
2022-11-29T09:36:30.063Z,1.70
2022-11-29T09:38:58.280Z,1.80
2022-11-29T09:41:48.200Z,1.73
2022-11-29T09:44:27.779Z,2.53
2022-11-29T09:47:12.849Z,5.18
2022-11-29T09:49:48.802Z,4.05
2022-11-29T09:52:49.515Z,3.20
2022-11-29T09:55:38.210Z,3.17
2022-11-29T09:58:10.145Z,2.72
2022-11-29T10:00:46.785Z,2.10
2022-11-29T10:03:36.551Z,1.85
2022-11-29T10:06:07.826Z,1.45
2022-11-29T10:08:42.217Z,1.67
2022-11-29T10:11:20.462Z,2.05
2022-11-29T10:13:54.353Z,1.87
2022-11-29T10:16:27.425Z,1.80
2022-11-29T10:19:11.312Z,1.70
2022-11-29T10:21:44.396Z,1.83
2022-11-29T10:24:17.899Z,2.10
2022-11-29T10:26:44.931Z,1.60
2022-11-29T10:29:15.546Z,1.70
2022-11-29T10:31:46.941Z,2.37
2022-11-29T10:34:15.561Z,2.08
2022-11-29T10:36:50.207Z,1.75
2022-11-29T10:39:46.765Z,1.95
2022-11-29T10:42:37.357Z,2.15
2022-11-29T10:45:15.628Z,1.67
2022-11-29T10:47:45.775Z,1.50
2022-11-29T10:50:27.848Z,1.80
2022-11-29T10:53:00.256Z,1.80
2022-11-29T10:55:42.985Z,2.25
2022-11-29T10:58:12.349Z,2.17
2022-11-29T11:00:56.408Z,1.70
2022-11-29T11:03:33.342Z,1.85
2022-11-29T11:06:14.509Z,1.92
2022-11-29T11:08:51.402Z,1.80
2022-11-29T11:11:33.904Z,1.60
2022-11-29T11:14:06.744Z,1.92
2022-11-29T11:16:37.388Z,2.28
2022-11-29T11:19:23.637Z,2.08
2022-11-29T11:21:51.218Z,1.87
2022-11-29T11:24:31.343Z,2.00
2022-11-29T11:26:59.336Z,1.90
2022-11-29T11:29:41.437Z,2.85
2022-11-29T11:32:18.007Z,2.20
2022-11-29T11:34:56.641Z,2.55
2022-11-29T11:37:31.823Z,2.30
2022-11-29T11:40:01.544Z,2.53
2022-11-29T11:42:41.041Z,2.25
2022-11-29T11:45:10.833Z,2.90
2022-11-29T11:47:50.778Z,2.85
2022-11-29T11:50:33.917Z,2.25
2022-11-29T11:53:21.434Z,2.92
2022-11-29T11:56:01.420Z,2.75
2022-11-29T11:58:32.999Z,2.67
2022-11-29T12:01:13.343Z,1.92
2022-11-29T12:04:02.976Z,2.08
2022-11-29T12:06:39.106Z,1.90
2022-11-29T12:09:09.172Z,2.25
2022-11-29T12:11:55.323Z,1.83
2022-11-29T12:14:44.973Z,2.00
2022-11-29T12:17:34.984Z,1.70
2022-11-29T12:20:13.998Z,2.25
2022-11-29T12:22:51.689Z,1.90
2022-11-29T12:25:25.194Z,1.67
2022-11-29T12:27:52.465Z,1.58
2022-11-29T12:30:19.992Z,1.40
2022-11-29T12:33:08.928Z,2.20
2022-11-29T12:35:49.233Z,2.92
2022-11-29T12:38:25.089Z,3.50
2022-11-29T12:41:07.253Z,3.30
2022-11-29T12:43:55.664Z,2.87
2022-11-29T12:46:28.290Z,3.10
2022-11-29T12:49:10.850Z,3.20
2022-11-29T12:51:52.013Z,2.67
2022-11-29T12:55:03.756Z,2.65
2022-11-29T12:57:43.717Z,3.03
2022-11-29T13:00:20.837Z,2.80
2022-11-29T13:03:13.192Z,2.55
2022-11-29T13:06:16.960Z,3.30
2022-11-29T13:08:59.754Z,2.37
2022-11-29T13:11:36.746Z,2.40
2022-11-29T13:14:41.013Z,2.17
2022-11-29T13:17:02.369Z,2.33
2022-11-29T13:19:53.822Z,2.62
2022-11-29T13:22:33.140Z,2.75
2022-11-29T13:25:03.741Z,2.60
2022-11-29T13:27:35.292Z,2.53
2022-11-29T13:30:04.550Z,2.40
2022-11-29T13:32:38.759Z,2.60
2022-11-29T13:35:38.047Z,2.67
2022-11-29T13:38:18.615Z,2.72
2022-11-29T13:40:52.619Z,2.40
2022-11-29T13:43:47.566Z,2.58
2022-11-29T13:46:36.508Z,2.53
2022-11-29T13:49:03.619Z,2.30
2022-11-29T13:51:37.958Z,2.50
2022-11-29T13:54:24.824Z,2.42
2022-11-29T13:57:05.546Z,2.17
2022-11-29T13:59:36.010Z,2.30
2022-11-29T14:02:03.899Z,2.65
2022-11-29T14:04:33.632Z,2.97
2022-11-29T14:07:07.744Z,3.20
2022-11-29T14:09:47.503Z,3.00
2022-11-29T14:12:21.203Z,2.72
2022-11-29T14:15:20.946Z,2.95
2022-11-29T14:17:47.886Z,2.87
2022-11-29T14:20:43.999Z,2.22
2022-11-29T14:23:16.729Z,2.70
2022-11-29T14:26:03.594Z,2.90
2022-11-29T14:28:32.557Z,2.50
2022-11-29T14:31:03.032Z,2.28
2022-11-29T14:33:44.585Z,2.45
2022-11-29T14:36:42.366Z,2.25
2022-11-29T14:39:29.579Z,2.20
2022-11-29T14:42:18.801Z,2.10
2022-11-29T14:44:52.428Z,2.20
2022-11-29T14:47:24.314Z,2.17
2022-11-29T14:49:53.042Z,2.90
2022-11-29T14:52:37.896Z,2.90
2022-11-29T14:55:06.993Z,2.72
2022-11-29T14:57:51.805Z,2.30
2022-11-29T15:00:38.352Z,2.62
2022-11-29T15:03:10.665Z,2.70
2022-11-29T15:05:59.532Z,2.67
2022-11-29T15:08:58.345Z,2.85
2022-11-29T15:11:51.083Z,3.85
2022-11-29T15:14:42.797Z,3.58
2022-11-29T15:17:45.629Z,3.72
2022-11-29T15:20:37.727Z,3.80
2022-11-29T15:23:18.609Z,3.90
2022-11-29T15:25:53.042Z,4.07
2022-11-29T15:28:26.581Z,4.07
2022-11-29T15:31:10.838Z,4.47
2022-11-29T15:33:41.379Z,6.72
2022-11-29T15:36:18.568Z,6.40
2022-11-29T15:38:50.139Z,6.68
2022-11-29T15:41:21.913Z,6.85
2022-11-29T15:44:00.139Z,6.12
2022-11-29T15:46:29.205Z,5.72
2022-11-29T15:49:14.906Z,5.43
2022-11-29T15:51:42.223Z,4.62
2022-11-29T15:54:15.027Z,4.72
2022-11-29T15:56:54.599Z,10.00
2022-11-29T15:59:24.481Z,8.73
2022-11-29T16:01:54.526Z,7.95
2022-11-29T16:04:24.447Z,7.22
2022-11-29T16:06:54.633Z,6.53
2022-11-29T16:09:37.482Z,4.55
2022-11-29T16:12:09.433Z,5.15
2022-11-29T16:14:36.352Z,4.85
2022-11-29T16:17:05.446Z,4.07
2022-11-29T16:19:37.809Z,4.32
2022-11-29T16:22:10.821Z,4.80
2022-11-29T16:24:40.275Z,3.92
2022-11-29T16:27:08.289Z,4.68
2022-11-29T16:29:38.604Z,10.18
2022-11-29T16:32:27.563Z,7.45
2022-11-29T16:34:56.086Z,9.23
2022-11-29T16:37:30.166Z,7.65
2022-11-29T16:40:01.861Z,8.07
2022-11-29T16:42:31.215Z,7.03
2022-11-29T16:45:09.908Z,5.18
2022-11-29T16:47:48.988Z,5.20
2022-11-29T16:50:21.951Z,4.80
2022-11-29T16:52:56.131Z,4.78
2022-11-29T16:55:23.900Z,5.10
2022-11-29T16:57:52.141Z,4.80
2022-11-29T17:00:22.860Z,4.72
2022-11-29T17:02:49.763Z,6.03
2022-11-29T17:05:16.723Z,6.65
2022-11-29T17:07:44.029Z,6.62
2022-11-29T17:10:16.574Z,5.97
2022-11-29T17:12:47.966Z,6.68
2022-11-29T17:15:15.702Z,7.65
2022-11-29T17:17:45.944Z,7.12
2022-11-29T17:20:14.031Z,7.30
2022-11-29T17:22:41.560Z,7.32
2022-11-29T17:25:09.140Z,7.22
2022-11-29T17:27:36.504Z,7.20
2022-11-29T17:30:05.713Z,6.95
2022-11-29T17:32:35.664Z,6.50
2022-11-29T17:35:02.804Z,7.40
2022-11-29T17:37:30.757Z,7.65
2022-11-29T17:39:57.818Z,6.72
2022-11-29T17:42:24.773Z,6.87
2022-11-29T17:44:51.725Z,6.80
2022-11-29T17:47:18.719Z,6.93
2022-11-29T17:49:46.272Z,6.10
2022-11-29T17:52:13.573Z,6.45
2022-11-29T17:54:40.565Z,7.00
2022-11-29T17:57:07.569Z,7.28
2022-11-29T17:59:34.500Z,7.20
2022-11-29T18:02:02.262Z,5.78
2022-11-29T18:04:29.327Z,5.50
2022-11-29T18:06:56.304Z,5.22
2022-11-29T18:09:24.665Z,4.95
2022-11-29T18:11:52.549Z,5.95
2022-11-29T18:14:25.390Z,5.53
2022-11-29T18:16:52.461Z,5.95
2022-11-29T18:19:21.717Z,5.70
2022-11-29T18:21:49.747Z,6.57
2022-11-29T18:24:16.989Z,6.45
2022-11-29T18:26:44.283Z,5.82
2022-11-29T18:29:13.762Z,7.37
2022-11-29T18:31:42.833Z,7.28
2022-11-29T18:34:11.690Z,7.85
2022-11-29T18:36:43.112Z,7.53
2022-11-29T18:39:14.214Z,10.38
2022-11-29T18:41:43.451Z,8.88
2022-11-29T18:44:13.526Z,7.37
2022-11-29T18:46:43.456Z,8.70
2022-11-29T18:49:14.145Z,9.45
2022-11-29T18:51:45.663Z,7.05
2022-11-29T18:54:13.888Z,8.90
2022-11-29T18:56:41.407Z,8.35
2022-11-29T18:59:11.544Z,7.10
2022-11-29T19:01:43.104Z,6.65
2022-11-29T19:04:13.194Z,9.60
2022-11-29T19:06:40.478Z,10.82
2022-11-29T19:09:11.486Z,10.27
2022-11-29T19:11:38.878Z,10.57
2022-11-29T19:14:11.561Z,11.20
2022-11-29T19:16:41.185Z,13.68
2022-11-29T19:19:08.344Z,11.75
2022-11-29T19:21:35.619Z,13.32
2022-11-29T19:24:05.679Z,8.82
2022-11-29T19:26:34.414Z,10.10
2022-11-29T19:29:02.022Z,11.68
2022-11-29T19:31:29.609Z,10.65
2022-11-29T19:33:57.740Z,10.55
2022-11-29T19:36:27.193Z,10.55
2022-11-29T19:38:54.786Z,12.27
2022-11-29T19:41:24.738Z,9.93
2022-11-29T19:43:52.098Z,15.20
2022-11-29T19:46:27.933Z,17.60
2022-11-29T19:48:56.967Z,10.98
2022-11-29T19:51:25.417Z,11.73
2022-11-29T19:54:00.988Z,11.82
2022-11-29T19:56:29.178Z,8.75
2022-11-29T19:58:56.432Z,8.35
2022-11-29T20:01:27.972Z,8.32
2022-11-29T20:03:58.479Z,10.45
2022-11-29T20:06:29.330Z,10.63
2022-11-29T20:08:56.986Z,9.43
2022-11-29T20:11:25.384Z,8.43
2022-11-29T20:14:00.992Z,11.80
2022-11-29T20:16:29.094Z,11.10
2022-11-29T20:18:56.894Z,14.20
2022-11-29T20:21:27.201Z,14.75
2022-11-29T20:24:00.173Z,13.82
2022-11-29T20:26:28.959Z,15.27
2022-11-29T20:28:56.014Z,13.30
2022-11-29T20:31:23.470Z,10.25
2022-11-29T20:33:52.674Z,13.52
2022-11-29T20:36:31.490Z,10.57
2022-11-29T20:39:12.559Z,11.27
2022-11-29T20:42:00.735Z,9.80
2022-11-29T20:44:50.638Z,9.18
2022-11-29T20:47:19.585Z,9.07
2022-11-29T20:49:46.977Z,8.25
2022-11-29T20:52:44.236Z,8.77
2022-11-29T20:55:11.166Z,9.27
2022-11-29T20:57:40.827Z,8.63
2022-11-29T21:00:11.474Z,8.90
2022-11-29T21:02:38.913Z,9.68
2022-11-29T21:05:06.826Z,9.57
2022-11-29T21:07:34.374Z,8.95
2022-11-29T21:10:01.921Z,10.10
2022-11-29T21:12:30.080Z,9.63
2022-11-29T21:14:57.754Z,10.20
2022-11-29T21:17:31.743Z,8.30
2022-11-29T21:20:00.644Z,8.65
2022-11-29T21:22:52.606Z,7.35
2022-11-29T21:25:31.247Z,6.68
2022-11-29T21:27:59.718Z,8.30
2022-11-29T21:30:26.837Z,5.20
2022-11-29T21:32:54.267Z,6.62
2022-11-29T21:35:21.178Z,5.93
2022-11-29T21:37:48.305Z,6.43
2022-11-29T21:40:15.667Z,6.20
2022-11-29T21:42:42.683Z,8.00
2022-11-29T21:45:15.252Z,6.78
2022-11-29T21:47:44.240Z,6.47
2022-11-29T21:50:12.510Z,6.75
2022-11-29T21:52:39.678Z,7.53
2022-11-29T21:55:06.940Z,6.35
2022-11-29T21:57:33.798Z,7.15
2022-11-29T22:00:00.694Z,8.50
2022-11-29T22:02:27.809Z,7.18
2022-11-29T22:04:54.835Z,5.93
2022-11-29T22:07:21.791Z,6.10
2022-11-29T22:09:48.722Z,5.47
2022-11-29T22:12:32.939Z,5.00
2022-11-29T22:15:01.397Z,6.57
2022-11-29T22:17:28.318Z,5.75
2022-11-29T22:19:55.206Z,6.55
2022-11-29T22:22:22.234Z,6.50
2022-11-29T22:24:49.392Z,6.00
2022-11-29T22:27:18.455Z,6.12
2022-11-29T22:29:45.793Z,6.37
2022-11-29T22:32:12.670Z,6.93
2022-11-29T22:34:39.561Z,6.62
2022-11-29T22:37:06.539Z,6.55
2022-11-29T22:39:33.452Z,4.37
2022-11-29T22:42:00.358Z,6.12
2022-11-29T22:44:27.286Z,6.82
2022-11-29T22:46:54.309Z,6.05
2022-11-29T22:49:21.445Z,6.07
2022-11-29T22:51:48.361Z,6.03
2022-11-29T22:54:16.543Z,6.15
2022-11-29T22:56:44.805Z,7.32
2022-11-29T22:59:11.781Z,6.85
2022-11-29T23:01:40.487Z,6.15
2022-11-29T23:04:08.585Z,5.85
2022-11-29T23:06:41.414Z,6.78
2022-11-29T23:09:12.079Z,5.22
2022-11-29T23:11:39.231Z,5.93
2022-11-29T23:14:06.241Z,4.57
2022-11-29T23:16:33.626Z,4.22
2022-11-29T23:19:01.754Z,5.45
2022-11-29T23:21:31.010Z,4.82
2022-11-29T23:24:01.636Z,6.07
2022-11-29T23:26:37.573Z,4.75
2022-11-29T23:29:06.015Z,4.40
2022-11-29T23:31:33.847Z,5.22
2022-11-29T23:34:02.092Z,3.95
2022-11-29T23:36:29.012Z,4.72
2022-11-29T23:38:56.276Z,4.68
2022-11-29T23:41:23.280Z,4.12
2022-11-29T23:43:50.280Z,4.78
2022-11-29T23:46:20.545Z,5.87
2022-11-29T23:48:48.291Z,5.70
2022-11-29T23:51:16.395Z,4.50
2022-11-29T23:53:43.567Z,5.57
2022-11-29T23:56:14.003Z,5.45
2022-11-29T23:58:41.391Z,5.95
